Time;durP1;ratioP1;P1;durP2;ratioP2;P2;SDS_P1;SDS_P2;PMS_P1;PMS_P2;Temp;Humidity;BMP_temperature;BMP_pressure;BME280_temperature;BME280_humidity;BME280_pressure;Samples;Min_cycle;Max_cycle;Signal;HPM_P1;HPM_P2
2023/05/13 00:00:36;;;;;;;19.63;11.35;;;11.60;99.90;;;;;;5012054;28;20028;-74
2023/05/13 00:03:02;;;;;;;17.27;11.95;;;11.60;99.90;;;;;;5013382;28;20061;-77
2023/05/13 00:05:28;;;;;;;17.73;11.45;;;11.70;99.90;;;;;;5012244;28;20053;-81
2023/05/13 00:07:54;;;;;;;18.77;11.48;;;11.70;99.90;;;;;;5018428;28;20104;-78
2023/05/13 00:10:20;;;;;;;18.92;11.93;;;11.70;99.90;;;;;;5012183;28;20048;-80
2023/05/13 00:12:46;;;;;;;21.00;13.40;;;11.70;99.90;;;;;;5012954;28;20061;-79
2023/05/13 00:15:12;;;;;;;16.85;11.35;;;11.70;99.90;;;;;;5015139;28;20685;-83
2023/05/13 00:17:38;;;;;;;20.92;11.77;;;11.70;99.90;;;;;;5013518;28;20057;-72
2023/05/13 00:20:05;;;;;;;19.25;12.30;;;11.70;99.90;;;;;;5013573;28;20026;-80
2023/05/13 00:22:31;;;;;;;19.65;13.93;;;11.80;99.90;;;;;;5016901;28;20026;-81
2023/05/13 00:24:57;;;;;;;18.50;11.85;;;11.80;99.90;;;;;;5015596;28;20026;-81
2023/05/13 00:27:23;;;;;;;18.48;11.05;;;11.70;99.90;;;;;;5014747;28;20057;-82
2023/05/13 00:29:49;;;;;;;16.50;11.20;;;11.80;99.90;;;;;;5030565;28;20482;-84
2023/05/13 00:32:14;;;;;;;16.63;10.65;;;11.70;99.90;;;;;;5014052;28;20044;-85
2023/05/13 00:34:40;;;;;;;18.48;11.80;;;11.70;99.90;;;;;;5014808;28;20037;-79
2023/05/13 00:37:09;;;;;;;18.75;10.35;;;11.70;99.90;;;;;;5015576;28;20022;-82
2023/05/13 00:39:35;;;;;;;17.33;10.57;;;11.70;99.90;;;;;;5031803;28;20022;-83
2023/05/13 00:42:03;;;;;;;18.30;10.65;;;11.70;99.90;;;;;;5016669;28;20033;-73
2023/05/13 00:44:29;;;;;;;17.65;10.57;;;11.70;99.90;;;;;;5036955;28;20048;-84
2023/05/13 00:46:55;;;;;;;17.90;11.82;;;11.70;99.90;;;;;;5014801;28;20022;-84
2023/05/13 00:49:21;;;;;;;18.02;11.07;;;11.70;99.90;;;;;;5015460;28;20029;-84
2023/05/13 00:51:47;;;;;;;17.05;11.02;;;11.70;99.90;;;;;;5019991;28;20038;-80
2023/05/13 00:54:13;;;;;;;18.15;11.18;;;11.60;99.90;;;;;;5018850;28;20018;-81
2023/05/13 00:56:39;;;;;;;17.45;10.77;;;11.70;99.90;;;;;;5017116;28;20033;-78
2023/05/13 00:59:05;;;;;;;16.40;10.90;;;11.70;99.90;;;;;;5016082;28;20497;-76
2023/05/13 01:02:04;;;;;;;19.00;11.57;;;11.60;99.90;;;;;;5019826;28;20346;-74
2023/05/13 01:04:43;;;;;;;19.55;11.95;;;11.60;99.90;;;;;;5015962;28;20034;-78
2023/05/13 01:07:30;;;;;;;17.90;11.18;;;11.70;99.90;;;;;;5016258;28;20503;-74
2023/05/13 01:10:14;;;;;;;21.83;12.38;;;11.60;99.90;;;;;;5033547;28;20512;-82
2023/05/13 01:12:43;;;;;;;19.77;11.70;;;11.60;99.90;;;;;;5016713;28;20513;-74
2023/05/13 01:15:16;;;;;;;18.98;12.07;;;11.50;99.90;;;;;;5020159;28;20014;-86
2023/05/13 01:17:58;;;;;;;18.63;11.23;;;11.40;99.90;;;;;;5033040;28;20068;-84
2023/05/13 01:20:26;;;;;;;19.63;13.32;;;11.50;99.90;;;;;;5015183;28;20022;-85
2023/05/13 01:22:52;;;;;;;21.20;12.02;;;11.50;99.90;;;;;;5031061;28;20021;-85
2023/05/13 01:25:18;;;;;;;21.55;11.90;;;11.50;99.90;;;;;;5020785;28;20029;-80
2023/05/13 01:27:44;;;;;;;19.27;12.18;;;11.50;99.90;;;;;;5015418;28;20504;-79
2023/05/13 01:30:12;;;;;;;18.25;11.68;;;11.50;99.90;;;;;;5014057;28;20032;-85
2023/05/13 01:32:39;;;;;;;21.95;12.25;;;11.50;99.90;;;;;;5030209;28;20501;-76
2023/05/13 01:35:06;;;;;;;18.48;12.85;;;11.50;99.90;;;;;;5030127;28;20619;-84
2023/05/13 01:37:36;;;;;;;22.23;12.77;;;11.60;99.90;;;;;;5013091;28;20026;-79
2023/05/13 01:40:04;;;;;;;16.73;11.00;;;11.60;99.90;;;;;;5014637;28;20379;-80
2023/05/13 01:42:30;;;;;;;18.42;11.95;;;11.60;99.90;;;;;;5012723;28;20145;-81
2023/05/13 01:44:56;;;;;;;19.05;12.13;;;11.60;99.90;;;;;;5029511;28;20014;-79
2023/05/13 01:47:22;;;;;;;16.67;10.70;;;11.60;99.90;;;;;;5013952;28;20457;-80
2023/05/13 01:49:49;;;;;;;17.90;11.82;;;11.50;99.90;;;;;;5028925;28;20029;-81
2023/05/13 01:52:14;;;;;;;18.35;11.43;;;11.60;99.90;;;;;;5012762;28;20405;-81
2023/05/13 01:54:40;;;;;;;21.02;12.35;;;11.50;99.90;;;;;;5028715;28;20037;-73
2023/05/13 01:57:10;;;;;;;20.48;12.18;;;11.50;99.90;;;;;;5012604;28;20030;-78
2023/05/13 01:59:36;;;;;;;18.50;11.50;;;11.50;99.90;;;;;;5028690;28;20091;-73
2023/05/13 02:02:02;;;;;;;18.95;11.98;;;11.60;99.90;;;;;;5029028;28;20018;-78
2023/05/13 02:04:28;;;;;;;19.65;11.63;;;11.50;99.90;;;;;;5013392;28;20561;-71
2023/05/13 02:06:55;;;;;;;18.20;11.60;;;11.50;99.90;;;;;;5013485;28;20038;-79
2023/05/13 02:09:22;;;;;;;17.88;11.25;;;11.50;99.90;;;;;;5028343;28;20101;-80
2023/05/13 02:11:48;;;;;;;18.95;11.90;;;11.60;99.90;;;;;;5013290;28;20046;-80
2023/05/13 02:14:14;;;;;;;18.48;11.45;;;11.50;99.90;;;;;;5028630;28;20098;-79
2023/05/13 02:16:40;;;;;;;20.05;10.95;;;11.40;99.90;;;;;;5013958;28;20022;-75
2023/05/13 02:19:06;;;;;;;17.05;11.68;;;11.50;99.90;;;;;;4996520;28;20457;-78
2023/05/13 02:21:32;;;;;;;18.90;10.40;;;11.50;99.90;;;;;;5011858;28;20076;-80
2023/05/13 02:23:58;;;;;;;16.40;10.25;;;11.50;99.90;;;;;;5013256;28;20061;-80
2023/05/13 02:26:23;;;;;;;17.75;10.15;;;11.40;99.90;;;;;;5011593;28;20018;-79
2023/05/13 02:28:50;;;;;;;16.90;10.43;;;11.40;99.90;;;;;;5028542;28;20037;-77
2023/05/13 02:31:16;;;;;;;17.02;10.02;;;11.30;99.90;;;;;;5012821;28;20463;-78
2023/05/13 02:33:43;;;;;;;19.15;11.18;;;11.30;99.90;;;;;;4995235;28;20041;-77
2023/05/13 02:36:08;;;;;;;22.52;9.60;;;11.20;99.90;;;;;;5013359;28;20022;-78
2023/05/13 02:38:36;;;;;;;20.13;10.52;;;11.20;99.90;;;;;;5014875;28;20022;-77
2023/05/13 02:41:03;;;;;;;17.15;9.75;;;11.20;99.90;;;;;;5012594;28;20125;-75
2023/05/13 02:43:30;;;;;;;18.50;10.40;;;11.10;99.90;;;;;;5027846;28;20061;-78
2023/05/13 02:46:02;;;;;;;16.40;10.15;;;11.10;99.90;;;;;;5011818;28;20029;-71
2023/05/13 02:48:29;;;;;;;21.75;10.95;;;11.10;99.90;;;;;;5027899;28;20482;-73
2023/05/13 02:50:54;;;;;;;15.68;9.55;;;11.20;99.90;;;;;;5012074;28;20040;-77
2023/05/13 02:53:20;;;;;;;17.13;11.02;;;11.20;99.90;;;;;;5027691;28;20397;-79
2023/05/13 02:55:54;;;;;;;18.50;10.85;;;11.30;99.90;;;;;;5011069;28;20095;-77
2023/05/13 02:58:23;;;;;;;17.17;10.02;;;11.30;99.90;;;;;;5011442;28;20018;-73
2023/05/13 03:00:49;;;;;;;19.10;10.85;;;11.20;99.90;;;;;;5023594;28;20022;-79
2023/05/13 03:03:15;;;;;;;19.17;11.85;;;11.20;99.90;;;;;;5011335;28;20389;-77
2023/05/13 03:05:41;;;;;;;19.58;11.10;;;11.30;99.90;;;;;;5012258;28;20022;-78
2023/05/13 03:08:07;;;;;;;16.75;11.15;;;11.30;99.90;;;;;;5012444;28;20544;-78
2023/05/13 03:10:34;;;;;;;15.90;9.63;;;11.20;99.90;;;;;;5027557;28;20048;-79
2023/05/13 03:12:59;;;;;;;18.50;9.63;;;11.30;99.90;;;;;;5011698;28;20042;-71
2023/05/13 03:15:25;;;;;;;17.80;10.52;;;11.30;99.90;;;;;;5010730;28;20363;-80
2023/05/13 03:17:51;;;;;;;15.35;9.88;;;11.30;99.90;;;;;;5011989;28;20148;-78
2023/05/13 03:20:19;;;;;;;21.45;11.02;;;11.20;99.90;;;;;;5010989;28;20066;-75
2023/05/13 03:22:45;;;;;;;17.80;9.48;;;11.20;99.90;;;;;;5010677;28;20117;-79
2023/05/13 03:25:11;;;;;;;27.55;16.17;;;11.10;99.90;;;;;;5011005;28;20057;-78
2023/05/13 03:27:45;;;;;;;26.30;15.02;;;11.00;99.90;;;;;;5010774;28;20491;-79
2023/05/13 03:30:12;;;;;;;19.80;12.85;;;11.00;99.90;;;;;;5010886;28;20022;-77
2023/05/13 03:32:50;;;;;;;21.02;12.68;;;11.00;99.90;;;;;;5010590;28;20402;-78
2023/05/13 03:35:16;;;;;;;19.05;11.98;;;11.00;99.90;;;;;;4994165;28;20022;-79
2023/05/13 03:37:42;;;;;;;17.45;10.80;;;11.00;99.90;;;;;;5027118;28;20037;-79
2023/05/13 03:40:10;;;;;;;16.40;10.55;;;10.90;99.90;;;;;;5010543;28;20025;-78
2023/05/13 03:42:36;;;;;;;17.58;10.32;;;10.90;99.90;;;;;;5010493;28;20548;-78
2023/05/13 03:45:04;;;;;;;17.98;11.07;;;10.90;99.90;;;;;;5030527;28;20022;-74
2023/05/13 03:47:32;;;;;;;16.77;10.88;;;10.90;99.90;;;;;;5010415;28;20026;-79
2023/05/13 03:50:01;;;;;;;20.58;12.40;;;10.90;99.90;;;;;;5026803;28;20386;-78
2023/05/13 03:52:31;;;;;;;17.85;11.07;;;11.20;99.90;;;;;;5014077;28;20121;-77
2023/05/13 03:54:57;;;;;;;19.33;11.43;;;11.70;99.90;;;;;;5010317;28;20188;-72
2023/05/13 03:57:23;;;;;;;15.93;10.02;;;11.60;99.90;;;;;;5011146;28;20025;-78
2023/05/13 03:59:49;;;;;;;22.55;10.40;;;11.50;99.90;;;;;;5026889;28;20072;-81
2023/05/13 04:02:15;;;;;;;18.75;10.27;;;12.50;99.90;;;;;;5027355;28;20026;-73
2023/05/13 04:04:40;;;;;;;14.95;9.68;;;12.90;99.90;;;;;;5025317;28;20120;-76
2023/05/13 04:07:06;;;;;;;13.93;9.15;;;13.20;99.90;;;;;;5014770;28;20037;-80
2023/05/13 04:09:32;;;;;;;11.73;7.40;;;14.30;99.90;;;;;;5032104;28;20049;-81
2023/05/13 04:11:58;;;;;;;18.30;8.68;;;15.40;99.90;;;;;;5030502;28;20507;-77
2023/05/13 04:14:24;;;;;;;12.48;7.90;;;16.00;99.90;;;;;;5032531;28;20750;-74
2023/05/13 04:16:49;;;;;;;14.18;9.15;;;16.60;99.90;;;;;;5031800;28;20043;-77
2023/05/13 04:19:15;;;;;;;18.77;8.63;;;17.20;99.90;;;;;;5030867;28;20465;-72
2023/05/13 04:21:41;;;;;;;18.88;8.13;;;17.80;99.90;;;;;;5032441;28;20033;-76
2023/05/13 04:24:07;;;;;;;13.88;8.15;;;18.10;99.90;;;;;;5032179;28;20025;-80
2023/05/13 04:26:32;;;;;;;14.38;8.73;;;18.40;99.90;;;;;;5031195;28;20045;-72
2023/05/13 04:28:58;;;;;;;12.93;8.75;;;19.00;99.90;;;;;;5047207;28;20512;-79
2023/05/13 04:31:25;;;;;;;11.02;7.88;;;19.20;99.90;;;;;;5030714;28;20481;-83
2023/05/13 04:33:51;;;;;;;12.38;8.45;;;19.70;99.90;;;;;;5031776;28;20060;-79
2023/05/13 04:36:17;;;;;;;12.93;7.30;;;19.40;99.90;;;;;;5032114;28;20032;-78
2023/05/13 04:38:43;;;;;;;11.70;7.32;;;19.20;99.90;;;;;;5030793;28;20067;-78
2023/05/13 04:41:09;;;;;;;11.98;6.97;;;19.00;99.90;;;;;;5031980;28;20501;-80
2023/05/13 04:43:40;;;;;;;13.82;7.78;;;19.60;99.90;;;;;;5030680;28;20037;-74
2023/05/13 04:46:06;;;;;;;12.13;7.97;;;19.90;99.90;;;;;;5030435;28;20124;-79
2023/05/13 04:48:32;;;;;;;11.95;7.30;;;20.10;99.90;;;;;;5028993;28;20029;-72
2023/05/13 04:50:58;;;;;;;14.68;6.82;;;19.90;99.90;;;;;;5028239;28;20038;-81
2023/05/13 04:53:24;;;;;;;11.00;6.22;;;20.30;99.90;;;;;;5031880;28;20028;-76
2023/05/13 04:55:56;;;;;;;13.38;7.50;;;19.40;99.90;;;;;;5023851;28;20040;-79
2023/05/13 04:58:21;;;;;;;16.25;7.22;;;18.90;99.90;;;;;;5014734;28;20129;-72
2023/05/13 05:00:47;;;;;;;15.00;8.05;;;17.90;99.90;;;;;;5025991;28;20550;-80
2023/05/13 05:03:13;;;;;;;14.43;7.00;;;17.30;99.90;;;;;;5031106;28;20029;-71
2023/05/13 05:05:40;;;;;;;12.52;7.35;;;17.10;99.90;;;;;;5010680;28;20489;-77
2023/05/13 05:08:08;;;;;;;12.52;7.25;;;17.10;99.90;;;;;;5014489;28;20104;-77
2023/05/13 05:10:33;;;;;;;13.80;8.18;;;17.20;99.90;;;;;;5022609;28;20030;-72
2023/05/13 05:13:00;;;;;;;12.82;8.23;;;17.60;99.90;;;;;;5029805;28;20046;-73
2023/05/13 05:15:28;;;;;;;11.57;7.40;;;17.80;99.90;;;;;;5030058;28;20021;-76
2023/05/13 05:17:57;;;;;;;11.85;6.82;;;17.80;99.90;;;;;;5027953;28;20041;-72
2023/05/13 05:20:23;;;;;;;13.65;7.13;;;17.80;99.90;;;;;;5041321;28;20021;-72
2023/05/13 05:22:50;;;;;;;12.00;7.40;;;17.70;99.90;;;;;;5025509;28;20151;-73
2023/05/13 05:25:17;;;;;;;11.85;7.22;;;17.70;99.90;;;;;;5008480;28;20022;-72
2023/05/13 05:27:43;;;;;;;12.40;8.32;;;18.00;99.90;;;;;;5019177;28;20053;-72
2023/05/13 05:30:10;;;;;;;12.25;8.05;;;18.00;99.90;;;;;;5029823;28;20034;-73
2023/05/13 05:32:37;;;;;;;15.63;7.50;;;18.20;99.90;;;;;;5045701;28;20041;-72
2023/05/13 05:35:04;;;;;;;17.58;7.57;;;18.00;99.90;;;;;;5029710;28;20030;-72
2023/05/13 05:37:32;;;;;;;14.57;7.55;;;17.80;99.90;;;;;;5031738;28;20033;-72
2023/05/13 05:39:58;;;;;;;16.50;7.47;;;16.90;99.90;;;;;;5034703;28;20072;-76
2023/05/13 05:42:24;;;;;;;13.27;7.82;;;16.50;99.90;;;;;;5032706;28;20556;-71
2023/05/13 05:44:50;;;;;;;13.75;7.88;;;16.50;99.90;;;;;;5049888;28;20121;-74
2023/05/13 05:47:17;;;;;;;12.85;7.65;;;16.50;99.90;;;;;;5033574;28;20037;-72
2023/05/13 05:49:43;;;;;;;12.98;7.70;;;16.50;99.90;;;;;;5033507;28;20064;-72
2023/05/13 05:52:10;;;;;;;12.02;7.47;;;16.40;99.90;;;;;;5033835;28;20465;-78
2023/05/13 05:54:36;;;;;;;12.40;7.63;;;16.30;99.90;;;;;;5032178;28;20508;-72
2023/05/13 05:57:01;;;;;;;15.32;7.60;;;16.10;99.90;;;;;;5031981;28;20041;-72
2023/05/13 05:59:27;;;;;;;15.88;8.23;;;16.30;99.90;;;;;;5032745;28;20037;-74
2023/05/13 06:01:53;;;;;;;12.32;7.30;;;16.70;99.90;;;;;;5031991;28;20587;-72
2023/05/13 06:04:20;;;;;;;16.55;8.07;;;16.90;99.90;;;;;;5033269;28;20036;-72
2023/05/13 06:06:46;;;;;;;14.02;7.88;;;17.10;99.90;;;;;;5032518;28;20022;-72
2023/05/13 06:09:12;;;;;;;13.73;7.75;;;16.50;99.90;;;;;;5032817;28;20076;-72
2023/05/13 06:11:37;;;;;;;13.18;8.55;;;17.00;99.90;;;;;;5033909;28;20025;-71
2023/05/13 06:14:03;;;;;;;16.40;9.10;;;17.20;99.90;;;;;;5034287;28;20029;-72
2023/05/13 06:16:29;;;;;;;17.75;9.00;;;17.30;99.90;;;;;;5033949;28;20025;-72
2023/05/13 06:18:55;;;;;;;15.82;8.60;;;17.60;99.90;;;;;;5034026;28;20021;-73
2023/05/13 06:21:21;;;;;;;12.70;8.13;;;17.80;99.90;;;;;;5032990;28;20056;-71
2023/05/13 06:23:48;;;;;;;16.17;7.80;;;18.10;99.90;;;;;;5034019;28;20018;-79
2023/05/13 06:26:14;;;;;;;14.23;7.65;;;18.00;99.90;;;;;;5034245;28;20032;-73
2023/05/13 06:28:39;;;;;;;15.85;8.88;;;18.20;99.90;;;;;;5032505;28;20026;-72
2023/05/13 06:31:05;;;;;;;18.77;7.15;;;18.30;99.90;;;;;;5033809;28;20380;-72
2023/05/13 06:33:32;;;;;;;13.65;7.70;;;17.80;99.90;;;;;;5032533;28;20029;-72
2023/05/13 06:35:58;;;;;;;12.65;7.75;;;17.50;99.90;;;;;;5032607;28;20028;-72
2023/05/13 06:38:25;;;;;;;11.98;6.95;;;17.80;99.90;;;;;;5015441;28;20025;-73
2023/05/13 06:40:55;;;;;;;11.70;6.60;;;17.80;99.90;;;;;;5018909;28;20392;-71
2023/05/13 06:43:27;;;;;;;11.68;6.95;;;17.40;99.90;;;;;;5032273;28;20103;-71
2023/05/13 06:45:56;;;;;;;12.68;7.38;;;16.70;99.90;;;;;;5032299;28;20026;-72
2023/05/13 06:48:23;;;;;;;14.93;6.85;;;16.50;99.90;;;;;;5032874;28;20138;-72
2023/05/13 06:50:49;;;;;;;11.35;6.50;;;17.20;99.90;;;;;;5032384;28;20029;-72
2023/05/13 06:53:15;;;;;;;7.88;5.53;;;16.90;99.90;;;;;;5048988;28;20470;-72
2023/05/13 06:55:41;;;;;;;11.20;6.47;;;16.60;99.90;;;;;;5033125;28;20032;-78
2023/05/13 06:58:08;;;;;;;14.23;7.03;;;17.00;99.90;;;;;;5033528;28;20381;-71
2023/05/13 07:00:38;;;;;;;11.45;5.65;;;17.30;99.90;;;;;;5031760;28;20032;-79
2023/05/13 07:03:05;;;;;;;9.43;5.70;;;16.40;99.90;;;;;;5033163;28;20386;-80
2023/05/13 07:05:35;;;;;;;10.18;5.82;;;16.70;99.90;;;;;;5033364;28;20028;-73
2023/05/13 07:08:05;;;;;;;11.32;6.53;;;16.50;99.90;;;;;;5042653;28;20447;-81
2023/05/13 07:10:32;;;;;;;10.15;6.07;;;17.50;99.90;;;;;;5020402;28;20400;-74
2023/05/13 07:12:59;;;;;;;15.25;6.65;;;17.30;99.90;;;;;;5032676;28;20037;-74
2023/05/13 07:15:25;;;;;;;11.32;6.50;;;17.50;99.90;;;;;;5029055;28;20030;-72
2023/05/13 07:17:51;;;;;;;11.95;6.38;;;18.20;99.90;;;;;;5023478;28;20186;-73
2023/05/13 07:20:20;;;;;;;13.63;7.55;;;18.60;99.90;;;;;;5019548;28;20043;-72
2023/05/13 07:22:50;;;;;;;14.18;7.30;;;18.60;99.90;;;;;;5033516;28;20033;-83
2023/05/13 07:25:17;;;;;;;12.10;6.18;;;18.70;99.90;;;;;;5032928;28;20477;-72
2023/05/13 07:27:43;;;;;;;10.38;6.40;;;19.00;99.90;;;;;;5033229;28;20021;-74
2023/05/13 07:30:10;;;;;;;10.00;6.32;;;18.10;99.90;;;;;;5032802;28;20025;-73
2023/05/13 07:32:36;;;;;;;11.00;6.45;;;18.10;99.90;;;;;;5032993;28;20033;-75
2023/05/13 07:35:02;;;;;;;15.52;6.38;;;18.60;99.90;;;;;;5032291;28;20021;-81
2023/05/13 07:37:28;;;;;;;10.82;6.65;;;19.10;99.90;;;;;;5028848;28;20034;-73
2023/05/13 07:39:54;;;;;;;10.57;6.68;;;19.50;99.90;;;;;;5027675;28;20068;-82
2023/05/13 07:42:20;;;;;;;9.70;6.05;;;19.20;99.90;;;;;;5015134;28;20037;-75
2023/05/13 07:44:46;;;;;;;12.98;6.88;;;19.30;99.90;;;;;;5031910;28;20486;-73
2023/05/13 07:47:12;;;;;;;9.70;6.05;;;19.30;99.90;;;;;;5011120;28;20068;-72
2023/05/13 07:49:38;;;;;;;12.65;6.60;;;19.80;99.90;;;;;;5012486;28;20493;-81
2023/05/13 07:52:05;;;;;;;11.27;6.78;;;;;;;;;;5012445;28;20041;-82
2023/05/13 07:54:31;;;;;;;9.57;4.82;;;20.40;99.90;;;;;;5012157;28;20110;-74
2023/05/13 07:56:57;;;;;;;12.32;5.05;;;20.10;99.90;;;;;;5026155;28;20069;-73
2023/05/13 07:59:22;;;;;;;11.02;5.93;;;19.80;99.90;;;;;;5012517;28;20390;-72
2023/05/13 08:01:48;;;;;;;11.23;6.60;;;20.10;99.90;;;;;;5012540;28;20029;-73
2023/05/13 08:04:14;;;;;;;10.55;6.00;;;20.00;99.90;;;;;;5012280;28;20030;-82
2023/05/13 08:06:40;;;;;;;10.63;5.22;;;20.20;99.90;;;;;;5013146;28;20228;-80
2023/05/13 08:09:08;;;;;;;8.40;5.60;;;20.30;99.90;;;;;;5016628;28;20409;-73
2023/05/13 08:11:34;;;;;;;11.23;5.82;;;20.60;99.90;;;;;;5012578;28;20121;-80
2023/05/13 08:14:00;;;;;;;8.68;4.97;;;20.80;99.90;;;;;;5011574;28;20057;-82
2023/05/13 08:16:26;;;;;;;11.88;5.72;;;19.70;99.90;;;;;;5015404;28;20160;-84
2023/05/13 08:18:52;;;;;;;8.82;5.60;;;19.50;99.90;;;;;;5012095;28;20025;-74
2023/05/13 08:21:18;;;;;;;8.27;5.30;;;19.20;99.90;;;;;;5012306;28;20049;-73
2023/05/13 08:23:44;;;;;;;7.82;5.43;;;18.60;99.90;;;;;;5022674;28;20067;-85
2023/05/13 08:26:10;;;;;;;9.38;5.75;;;19.10;99.90;;;;;;5031766;28;20072;-81
2023/05/13 08:28:36;;;;;;;9.27;5.70;;;19.10;99.90;;;;;;5031905;28;20025;-82
2023/05/13 08:31:03;;;;;;;11.00;6.20;;;19.20;99.90;;;;;;5031483;28;20022;-73
2023/05/13 08:33:29;;;;;;;9.70;5.13;;;18.90;99.90;;;;;;5031655;28;20037;-75
2023/05/13 08:35:55;;;;;;;6.95;4.43;;;18.80;99.90;;;;;;5031889;28;20101;-83
2023/05/13 08:38:21;;;;;;;9.23;4.18;;;19.00;99.90;;;;;;5023609;28;20516;-74
2023/05/13 08:40:47;;;;;;;6.53;3.13;;;19.30;99.90;;;;;;5026556;28;20026;-73
2023/05/13 08:43:17;;;;;;;7.75;3.55;;;19.40;99.90;;;;;;5030273;28;20049;-73
2023/05/13 08:45:45;;;;;;;4.97;3.47;;;19.80;99.90;;;;;;5031640;28;20787;-77
2023/05/13 08:48:15;;;;;;;8.27;3.63;;;20.20;99.90;;;;;;5031810;28;20024;-78
2023/05/13 08:50:41;;;;;;;5.82;4.32;;;20.20;99.90;;;;;;5032258;28;20033;-73
2023/05/13 08:53:08;;;;;;;6.43;3.33;;;20.30;99.90;;;;;;5031583;28;20086;-82
2023/05/13 08:55:34;;;;;;;8.38;4.68;;;19.40;99.90;;;;;;5031631;28;20408;-77
2023/05/13 08:57:59;;;;;;;6.93;4.03;;;19.80;99.90;;;;;;5031358;28;20116;-74
2023/05/13 09:00:25;;;;;;;5.85;3.22;;;19.90;99.90;;;;;;5031500;28;20060;-81
2023/05/13 09:02:51;;;;;;;4.57;3.55;;;20.10;99.90;;;;;;5029882;28;20108;-73
2023/05/13 09:05:17;;;;;;;4.75;3.47;;;20.10;99.90;;;;;;5011702;28;20026;-78
2023/05/13 09:07:43;;;;;;;4.88;2.78;;;20.20;99.90;;;;;;5015342;28;20029;-78
2023/05/13 09:10:10;;;;;;;5.80;3.50;;;19.80;99.90;;;;;;5031904;28;20061;-75
2023/05/13 09:12:47;;;;;;;4.97;3.20;;;20.00;99.90;;;;;;5023015;28;20351;-82
2023/05/13 09:15:16;;;;;;;7.13;3.22;;;20.30;99.90;;;;;;5033547;28;20464;-74
2023/05/13 09:17:51;;;;;;;6.13;3.45;;;20.40;99.90;;;;;;5035845;28;20034;-82
2023/05/13 09:20:18;;;;;;;12.45;4.18;;;20.60;99.90;;;;;;5035407;28;20163;-83
2023/05/13 09:22:48;;;;;;;14.70;4.13;;;20.90;99.90;;;;;;5035488;28;20132;-84
2023/05/13 09:25:15;;;;;;;9.77;4.25;;;20.70;99.90;;;;;;5035385;28;20048;-83
2023/05/13 09:27:50;;;;;;;5.65;3.67;;;20.80;99.90;;;;;;5035163;28;20545;-82
2023/05/13 09:30:16;;;;;;;5.93;3.22;;;20.70;99.90;;;;;;5035499;28;20025;-84
2023/05/13 09:32:42;;;;;;;5.38;3.70;;;21.10;99.90;;;;;;5035117;28;20477;-80
2023/05/13 09:35:15;;;;;;;5.68;3.33;;;21.40;99.90;;;;;;5035394;28;20473;-81
2023/05/13 09:37:48;;;;;;;4.35;2.85;;;21.10;99.90;;;;;;5034713;28;20037;-80
2023/05/13 09:40:15;;;;;;;6.85;2.78;;;20.80;99.90;;;;;;5035067;28;20064;-84
2023/05/13 09:42:45;;;;;;;4.82;3.08;;;20.80;99.90;;;;;;5035115;28;20522;-81
2023/05/13 09:45:13;;;;;;;5.75;3.08;;;21.00;99.90;;;;;;5034719;28;20087;-75
2023/05/13 09:47:39;;;;;;;17.00;3.00;;;21.20;99.90;;;;;;5033909;28;20014;-82
2023/05/13 09:50:07;;;;;;;4.50;2.75;;;20.60;99.90;;;;;;5035076;28;20038;-81
2023/05/13 09:52:35;;;;;;;5.05;2.88;;;21.10;99.90;;;;;;5035185;28;20102;-78
2023/05/13 09:55:05;;;;;;;4.85;2.97;;;21.50;99.90;;;;;;5033409;28;20401;-72
2023/05/13 09:57:31;;;;;;;5.25;2.88;;;21.30;99.90;;;;;;5035059;28;20032;-77
2023/05/13 10:00:04;;;;;;;3.58;2.72;;;21.30;99.90;;;;;;5034432;28;20420;-81
2023/05/13 10:02:37;;;;;;;3.85;2.40;;;21.50;99.90;;;;;;5034688;28;20393;-80
2023/05/13 10:05:07;;;;;;;5.07;2.30;;;21.50;99.90;;;;;;5034532;28;20025;-81
2023/05/13 10:07:34;;;;;;;6.68;2.67;;;21.30;99.90;;;;;;5034397;28;20099;-72
2023/05/13 10:10:01;;;;;;;4.05;2.80;;;21.50;99.90;;;;;;5034378;28;20045;-72
2023/05/13 10:12:30;;;;;;;3.95;2.50;;;21.70;99.90;;;;;;5034423;28;20115;-80
2023/05/13 10:14:58;;;;;;;3.35;1.92;;;21.70;99.90;;;;;;5034426;28;20097;-73
2023/05/13 10:17:25;;;;;;;5.18;2.15;;;21.80;99.90;;;;;;5034472;28;20083;-85
2023/05/13 10:19:53;;;;;;;5.07;2.13;;;22.00;99.90;;;;;;5034212;28;20057;-74
2023/05/13 10:22:30;;;;;;;5.68;2.25;;;22.30;99.90;;;;;;5034374;28;20064;-83
2023/05/13 10:25:01;;;;;;;4.20;1.55;;;22.20;99.50;;;;;;5032953;28;20072;-77
2023/05/13 10:27:32;;;;;;;4.87;1.47;;;22.60;99.90;;;;;;5033137;28;20099;-80
2023/05/13 10:30:00;;;;;;;2.67;1.90;;;22.40;99.00;;;;;;5033884;28;20018;-79
2023/05/13 10:32:29;;;;;;;5.55;1.60;;;22.30;98.80;;;;;;5034481;28;20025;-82
2023/05/13 10:35:09;;;;;;;2.97;1.65;;;22.40;99.90;;;;;;5034492;28;20025;-83
2023/05/13 10:37:54;;;;;;;6.90;1.60;;;21.90;99.80;;;;;;5034214;28;20527;-73
2023/05/13 10:40:28;;;;;;;7.13;2.30;;;22.00;99.30;;;;;;5023422;28;20057;-74
2023/05/13 10:43:00;;;;;;;3.78;1.63;;;22.00;99.70;;;;;;5034359;28;20033;-82
2023/05/13 10:45:26;;;;;;;6.78;1.88;;;21.80;98.60;;;;;;5034240;28;20030;-86
2023/05/13 10:47:55;;;;;;;4.35;2.60;;;21.90;99.50;;;;;;5048795;28;20033;-74
2023/05/13 10:50:24;;;;;;;5.72;2.00;;;22.20;99.90;;;;;;5034093;28;20156;-75
2023/05/13 10:52:54;;;;;;;3.45;1.73;;;21.90;98.70;;;;;;5033846;28;20071;-73
2023/05/13 10:55:20;;;;;;;4.13;2.38;;;22.10;99.60;;;;;;5034086;28;20033;-72
2023/05/13 10:58:11;;;;;;;2.45;1.90;;;21.50;99.90;;;;;;5033551;28;20135;-74
2023/05/13 11:00:42;;;;;;;5.35;2.00;;;21.50;99.30;;;;;;5033594;28;20036;-78
2023/05/13 11:03:24;;;;;;;3.58;2.00;;;21.60;99.40;;;;;;5033464;28;20036;-84
2023/05/13 11:06:13;;;;;;;3.55;1.77;;;21.60;99.50;;;;;;5031605;28;20129;-86
2023/05/13 11:08:44;;;;;;;3.42;1.70;;;21.80;97.50;;;;;;5025776;28;20057;-73
2023/05/13 11:11:37;;;;;;;7.93;2.42;;;22.00;98.60;;;;;;5012391;28;20034;-73
2023/05/13 11:14:19;;;;;;;5.30;2.63;;;22.10;97.60;;;;;;5023119;28;20506;-72
2023/05/13 11:17:09;;;;;;;4.32;1.70;;;22.30;97.90;;;;;;5031743;28;20388;-80
2023/05/13 11:19:37;;;;;;;1.92;1.40;;;22.30;98.00;;;;;;4991852;28;20066;-73
2023/05/13 11:22:19;;;;;;;7.22;1.90;;;22.00;97.30;;;;;;4991527;28;20033;-72
2023/05/13 11:25:02;;;;;;;5.03;2.22;;;21.50;95.80;;;;;;4990865;28;20077;-72
2023/05/13 11:27:36;;;;;;;5.30;1.88;;;21.50;97.20;;;;;;4964548;28;20418;-77
2023/05/13 11:30:05;;;;;;;6.55;2.10;;;21.90;99.80;;;;;;4991470;28;20069;-72
2023/05/13 11:32:50;;;;;;;9.75;2.67;;;22.10;98.30;;;;;;4990287;28;20026;-73
2023/05/13 11:35:33;;;;;;;6.30;2.15;;;22.20;98.00;;;;;;4991015;28;20029;-72
2023/05/13 11:38:02;;;;;;;4.97;1.77;;;22.00;99.20;;;;;;4974429;28;20525;-73
2023/05/13 11:40:29;;;;;;;4.95;2.10;;;22.20;99.00;;;;;;4991271;28;20549;-78
2023/05/13 11:42:55;;;;;;;7.68;2.28;;;22.20;97.90;;;;;;4975219;28;20073;-79
2023/05/13 11:45:23;;;;;;;4.03;2.30;;;22.30;99.30;;;;;;4991167;28;20078;-72
2023/05/13 11:47:49;;;;;;;6.35;1.80;;;22.50;97.50;;;;;;5085501;22;20060;-72
2023/05/13 11:50:31;;;;;;;6.25;2.00;;;22.70;98.80;;;;;;5052266;28;20029;-74
2023/05/13 11:52:58;;;;;;;;;;;22.70;96.50;;;;;;5041939;28;20070;-80
2023/05/13 11:55:28;;;;;;;6.45;2.05;;;22.70;98.10;;;;;;5052457;28;20360;-71
2023/05/13 11:57:55;;;;;;;6.03;1.63;;;22.70;96.20;;;;;;5052339;28;20409;-75
2023/05/13 12:00:25;;;;;;;3.60;1.60;;;22.30;95.00;;;;;;5052095;28;20021;-79
2023/05/13 12:02:52;;;;;;;3.17;1.92;;;22.70;94.70;;;;;;5032693;28;20049;-72
2023/05/13 12:05:18;;;;;;;3.47;1.65;;;22.80;96.90;;;;;;5035009;28;20029;-73
2023/05/13 12:07:44;;;;;;;4.90;1.20;;;22.90;97.80;;;;;;5052120;28;20033;-75
2023/05/13 12:10:10;;;;;;;3.60;2.13;;;22.40;96.40;;;;;;5050531;28;20029;-72
2023/05/13 12:12:44;;;;;;;8.20;2.80;;;22.30;96.70;;;;;;5052228;28;20098;-79
2023/05/13 12:15:13;;;;;;;8.75;2.03;;;22.40;98.30;;;;;;5051223;28;20051;-77
2023/05/13 12:17:39;;;;;;;7.03;2.35;;;22.40;96.60;;;;;;5052170;28;20020;-82
2023/05/13 12:20:13;;;;;;;6.18;1.90;;;22.30;99.00;;;;;;5051677;28;20036;-72
2023/05/13 12:22:42;;;;;;;7.88;1.90;;;22.30;97.50;;;;;;5051996;28;20120;-82
2023/05/13 12:25:42;;;;;;;3.55;1.50;;;22.30;96.90;;;;;;5052609;28;20157;-82
2023/05/13 12:28:22;;;;;;;6.07;2.08;;;22.10;98.00;;;;;;5051634;28;20020;-72
2023/05/13 12:30:52;;;;;;;6.38;2.05;;;22.10;97.40;;;;;;5052181;28;20033;-72
2023/05/13 12:33:25;;;;;;;4.70;1.83;;;22.10;97.30;;;;;;5052142;28;20033;-73
2023/05/13 12:36:12;;;;;;;7.68;2.97;;;22.10;97.70;;;;;;5051567;28;20114;-72
2023/05/13 12:38:38;;;;;;;7.20;2.38;;;22.10;97.20;;;;;;5028196;28;20037;-72
2023/05/13 12:41:13;;;;;;;6.75;2.67;;;22.00;96.80;;;;;;5050840;28;20040;-74
2023/05/13 12:43:40;;;;;;;8.98;2.63;;;22.00;97.80;;;;;;5043325;28;20021;-74